Time;durP1;ratioP1;P1;durP2;ratioP2;P2;SDS_P1;SDS_P2;PMS_P1;PMS_P2;Temp;Humidity;BMP_temperature;BMP_pressure;BME280_temperature;BME280_humidity;BME280_pressure;Samples;Min_cycle;Max_cycle;Signal;HPM_P1;HPM_P2
2023/08/11 00:00:25;;;;;;;2.05;1.90;;;;;;;;;;5094745;28;20380;-31
2023/08/11 00:02:51;;;;;;;3.88;2.45;;;;;;;;;;5094731;28;20032;-31
2023/08/11 00:05:18;;;;;;;2.10;2.00;;;;;;;;;;5094695;28;20024;-29
2023/08/11 00:07:45;;;;;;;5.20;2.25;;;;;;;;;;5094608;28;20063;-33
2023/08/11 00:10:12;;;;;;;2.42;2.30;;;;;;;;;;5095624;28;20024;-29
2023/08/11 00:12:39;;;;;;;2.63;2.22;;;;;;;;;;5100388;28;20077;-30
2023/08/11 00:15:06;;;;;;;2.30;2.10;;;;;;;;;;5101670;28;20057;-30
2023/08/11 00:17:33;;;;;;;2.42;2.22;;;;;;;;;;5101641;28;20044;-31
2023/08/11 00:19:59;;;;;;;3.00;1.90;;;;;;;;;;5101295;28;20106;-31
2023/08/11 00:22:25;;;;;;;2.65;2.15;;;;;;;;;;5101236;28;20043;-28
2023/08/11 00:24:51;;;;;;;2.72;2.42;;;;;;;;;;5101328;28;20020;-30
2023/08/11 00:27:18;;;;;;;3.85;2.30;;;;;;;;;;5100246;28;20020;-31
2023/08/11 00:29:44;;;;;;;5.72;2.40;;;;;;;;;;5101319;28;20035;-31
2023/08/11 00:32:11;;;;;;;3.03;2.63;;;;;;;;;;5101093;28;20067;-30
2023/08/11 00:34:37;;;;;;;2.05;1.95;;;;;;;;;;5101193;28;20016;-28
2023/08/11 00:37:04;;;;;;;2.83;2.15;;;;;;;;;;5101739;28;20028;-30
2023/08/11 00:39:30;;;;;;;2.85;2.40;;;;;;;;;;5101172;28;20476;-31
2023/08/11 00:41:56;;;;;;;2.80;2.10;;;;;;;;;;5101120;28;20142;-32
2023/08/11 00:44:23;;;;;;;2.15;1.90;;;;;;;;;;5101660;28;20334;-29
2023/08/11 00:46:49;;;;;;;3.05;2.75;;;;;;;;;;5101056;28;20102;-32
2023/08/11 00:49:15;;;;;;;2.38;2.17;;;;;;;;;;5101087;28;20016;-27
2023/08/11 00:51:42;;;;;;;2.47;2.28;;;;;;;;;;5101371;28;20025;-30
2023/08/11 00:54:08;;;;;;;4.30;2.40;;;;;;;;;;5100909;28;20095;-30
2023/08/11 00:56:34;;;;;;;2.50;2.30;;;;;;;;;;5101306;28;20100;-31
2023/08/11 00:59:01;;;;;;;2.38;2.03;;;;;;;;;;5101269;28;20027;-30
2023/08/11 01:01:27;;;;;;;4.10;2.05;;;;;;;;;;5101004;28;20055;-28
2023/08/11 01:03:53;;;;;;;2.63;2.38;;;;;;;;;;5100836;28;20048;-31
2023/08/11 01:06:38;;;;;;;2.47;2.28;;;;;;;;;;5101094;28;20036;-30
2023/08/11 01:09:04;;;;;;;2.47;2.28;;;;;;;;;;5101683;28;20024;-30
2023/08/11 01:11:33;;;;;;;2.83;2.35;;;;;;;;;;5101145;28;20447;-31
2023/08/11 01:14:05;;;;;;;2.15;1.95;;;;;;;;;;5101094;28;20032;-28
2023/08/11 01:16:32;;;;;;;2.35;2.15;;;;;;;;;;5100785;28;20075;-30
2023/08/11 01:18:59;;;;;;;2.10;2.00;;;;;;;;;;5100843;28;20024;-30
2023/08/11 01:21:26;;;;;;;3.70;2.15;;;;;;;;;;5100422;28;20033;-27
2023/08/11 01:23:52;;;;;;;3.42;2.20;;;;;;;;;;5096710;28;20370;-31
2023/08/11 01:26:18;;;;;;;2.50;2.30;;;;;;;;;;5097696;28;20054;-32
2023/08/11 01:28:44;;;;;;;2.40;2.20;;;;;;;;;;5097512;28;20035;-29
2023/08/11 01:31:11;;;;;;;6.10;2.40;;;;;;;;;;5097781;28;20020;-30
2023/08/11 01:33:37;;;;;;;2.35;2.25;;;;;;;;;;5097579;28;20020;-30
2023/08/11 01:36:04;;;;;;;4.88;2.97;;;;;;;;;;5097697;28;20035;-29
2023/08/11 01:38:30;;;;;;;2.30;2.00;;;;;;;;;;5097283;28;20123;-30
2023/08/11 01:40:57;;;;;;;5.25;2.42;;;;;;;;;;5097558;28;20474;-28
2023/08/11 01:43:24;;;;;;;2.80;2.20;;;;;;;;;;5097127;28;20028;-31
2023/08/11 01:45:51;;;;;;;1.88;1.75;;;;;;;;;;5097130;28;20024;-29
2023/08/11 01:48:18;;;;;;;2.13;2.03;;;;;;;;;;5096143;28;20490;-32
2023/08/11 01:50:44;;;;;;;2.10;2.00;;;;;;;;;;5097089;28;20027;-31
2023/08/11 01:53:11;;;;;;;4.28;1.88;;;;;;;;;;5097024;28;20081;-31
2023/08/11 01:55:37;;;;;;;2.65;2.45;;;;;;;;;;5096931;28;20027;-29
2023/08/11 01:58:03;;;;;;;2.63;2.00;;;;;;;;;;5097253;28;20121;-31
2023/08/11 02:00:32;;;;;;;1.90;1.80;;;;;;;;;;5097414;28;20038;-31
2023/08/11 02:02:58;;;;;;;2.20;2.00;;;;;;;;;;5096726;28;20112;-31
2023/08/11 02:05:25;;;;;;;2.08;1.98;;;;;;;;;;5097047;28;20047;-30
2023/08/11 02:07:52;;;;;;;3.67;2.35;;;;;;;;;;5097254;28;20379;-28
2023/08/11 02:10:18;;;;;;;2.30;2.03;;;;;;;;;;5096749;28;20027;-31
2023/08/11 02:12:44;;;;;;;2.30;2.10;;;;;;;;;;5096561;28;20020;-28
2023/08/11 02:15:10;;;;;;;2.55;1.85;;;;;;;;;;5096886;28;20028;-30
2023/08/11 02:17:37;;;;;;;2.10;2.00;;;;;;;;;;5096536;28;20028;-30
2023/08/11 02:20:22;;;;;;;2.13;2.03;;;;;;;;;;5096813;28;20085;-28
2023/08/11 02:22:49;;;;;;;2.05;1.85;;;;;;;;;;5096645;28;20332;-31
2023/08/11 02:25:15;;;;;;;2.40;2.20;;;;;;;;;;5096973;28;20347;-32
2023/08/11 02:27:42;;;;;;;2.63;2.25;;;;;;;;;;5096275;28;20054;-31
2023/08/11 02:30:10;;;;;;;2.13;2.03;;;;;;;;;;5096339;28;20017;-29
2023/08/11 02:32:37;;;;;;;3.45;1.88;;;;;;;;;;5096454;28;20051;-31
2023/08/11 02:35:04;;;;;;;4.95;1.77;;;;;;;;;;5096379;28;20023;-32
2023/08/11 02:37:31;;;;;;;1.90;1.80;;;;;;;;;;5096164;28;20107;-30
2023/08/11 02:39:57;;;;;;;2.17;2.05;;;;;;;;;;5096644;28;20028;-30
2023/08/11 02:42:24;;;;;;;4.22;1.70;;;;;;;;;;5096250;28;20035;-29
2023/08/11 02:44:51;;;;;;;2.33;2.05;;;;;;;;;;5095967;28;20055;-32
2023/08/11 02:47:18;;;;;;;2.08;1.98;;;;;;;;;;5096234;28;20028;-27
2023/08/11 02:49:44;;;;;;;2.17;2.08;;;;;;;;;;5096220;28;20020;-33
2023/08/11 02:52:11;;;;;;;2.28;1.92;;;;;;;;;;5096134;28;20095;-31
2023/08/11 02:54:37;;;;;;;2.13;2.00;;;;;;;;;;5095844;28;20050;-29
2023/08/11 02:57:03;;;;;;;1.90;1.80;;;;;;;;;;5095793;28;20020;-30
2023/08/11 02:59:29;;;;;;;2.03;1.85;;;;;;;;;;5095748;28;20358;-30
2023/08/11 03:01:55;;;;;;;2.10;1.95;;;;;;;;;;5095653;28;20063;-30
2023/08/11 03:04:21;;;;;;;2.05;1.90;;;;;;;;;;5095713;28;20052;-32
2023/08/11 03:06:47;;;;;;;2.63;2.45;;;;;;;;;;5095808;28;20028;-27
2023/08/11 03:09:14;;;;;;;2.22;2.03;;;;;;;;;;5096371;28;20039;-26
2023/08/11 03:11:40;;;;;;;2.47;2.28;;;;;;;;;;5095836;28;20432;-28
2023/08/11 03:14:06;;;;;;;2.53;2.33;;;;;;;;;;5095443;28;20032;-31
2023/08/11 03:16:32;;;;;;;1.77;1.67;;;;;;;;;;5095487;28;20059;-31
2023/08/11 03:18:58;;;;;;;2.10;1.92;;;;;;;;;;5095677;28;20028;-30
2023/08/11 03:21:24;;;;;;;2.83;2.28;;;;;;;;;;5095338;28;20020;-31
2023/08/11 03:23:50;;;;;;;2.10;2.00;;;;;;;;;;5095267;28;20031;-32
2023/08/11 03:26:17;;;;;;;1.92;1.83;;;;;;;;;;5095487;28;20134;-32
2023/08/11 03:28:43;;;;;;;2.17;1.90;;;;;;;;;;5095525;28;20043;-29
2023/08/11 03:31:09;;;;;;;2.20;2.00;;;;;;;;;;5095457;28;20020;-28
2023/08/11 03:33:35;;;;;;;2.00;1.90;;;;;;;;;;5095078;28;20066;-31
2023/08/11 03:36:02;;;;;;;1.80;1.70;;;;;;;;;;5095392;28;20039;-33
2023/08/11 03:38:28;;;;;;;1.95;1.80;;;;;;;;;;5095313;28;20095;-32
2023/08/11 03:40:54;;;;;;;2.42;2.22;;;;;;;;;;5095314;28;20350;-31
2023/08/11 03:43:21;;;;;;;2.05;1.95;;;;;;;;;;5095163;28;20080;-30
2023/08/11 03:45:47;;;;;;;3.00;2.05;;;;;;;;;;5094289;28;20057;-28
2023/08/11 03:48:13;;;;;;;4.35;2.25;;;;;;;;;;5094834;28;20082;-27
2023/08/11 03:50:39;;;;;;;2.00;1.90;;;;;;;;;;5094853;28;20101;-30
2023/08/11 03:53:06;;;;;;;1.60;1.50;;;;;;;;;;5095026;28;20023;-32
2023/08/11 03:55:33;;;;;;;2.67;2.05;;;;;;;;;;5094764;28;20493;-28
2023/08/11 03:57:59;;;;;;;2.92;2.38;;;;;;;;;;5094727;28;20214;-32
2023/08/11 04:00:25;;;;;;;1.85;1.75;;;;;;;;;;5094996;28;20095;-31
2023/08/11 04:02:51;;;;;;;2.63;2.10;;;;;;;;;;5094376;28;20366;-28
2023/08/11 04:05:17;;;;;;;1.90;1.80;;;;;;;;;;5094976;28;20020;-33
2023/08/11 04:07:43;;;;;;;1.88;1.77;;;;;;;;;;5093749;28;20063;-31
2023/08/11 04:10:15;;;;;;;2.72;1.92;;;;;;;;;;5094687;28;20028;-30
2023/08/11 04:12:41;;;;;;;2.58;2.22;;;;;;;;;;5094891;28;20035;-29
2023/08/11 04:15:07;;;;;;;3.38;2.08;;;;;;;;;;5094635;28;20028;-28
2023/08/11 04:17:33;;;;;;;2.47;2.22;;;;;;;;;;5094461;28;20482;-28
2023/08/11 04:20:00;;;;;;;2.20;2.10;;;;;;;;;;5094824;28;20408;-32
2023/08/11 04:22:26;;;;;;;2.50;2.17;;;;;;;;;;5094348;28;20119;-31
2023/08/11 04:24:52;;;;;;;1.95;1.85;;;;;;;;;;5094746;28;20024;-33
2023/08/11 04:27:18;;;;;;;2.95;2.63;;;;;;;;;;5094573;28;20031;-31
2023/08/11 04:29:44;;;;;;;2.13;1.77;;;;;;;;;;5094381;28;20362;-30
2023/08/11 04:32:10;;;;;;;2.08;1.95;;;;;;;;;;5094312;28;20027;-32
2023/08/11 04:34:36;;;;;;;3.78;1.92;;;;;;;;;;5094275;28;20024;-28
2023/08/11 04:37:04;;;;;;;2.03;1.80;;;;;;;;;;5094553;28;20450;-29
2023/08/11 04:39:31;;;;;;;2.17;2.00;;;;;;;;;;5094607;28;20107;-32
2023/08/11 04:41:57;;;;;;;2.63;2.25;;;;;;;;;;5094233;28;20032;-29
2023/08/11 04:44:23;;;;;;;5.70;2.60;;;;;;;;;;5094221;28;20036;-31
2023/08/11 04:46:50;;;;;;;3.67;2.28;;;;;;;;;;5094452;28;20343;-30
2023/08/11 04:49:16;;;;;;;1.85;1.75;;;;;;;;;;5094385;28;20020;-30
2023/08/11 04:51:42;;;;;;;2.08;1.98;;;;;;;;;;5094438;28;20024;-31
2023/08/11 04:54:09;;;;;;;3.45;1.80;;;;;;;;;;5094340;28;20020;-30
2023/08/11 04:56:35;;;;;;;2.90;1.88;;;;;;;;;;5094004;28;20020;-32
2023/08/11 04:59:01;;;;;;;2.08;1.90;;;;;;;;;;5097538;28;20409;-30
2023/08/11 05:01:27;;;;;;;3.38;1.95;;;;;;;;;;5097910;28;20024;-31
2023/08/11 05:03:53;;;;;;;1.92;1.83;;;;;;;;;;5097750;28;20435;-31
2023/08/11 05:06:21;;;;;;;1.80;1.67;;;;;;;;;;5097886;28;20116;-28
2023/08/11 05:08:47;;;;;;;2.35;2.10;;;;;;;;;;5097956;28;20378;-31
2023/08/11 05:11:14;;;;;;;2.10;2.00;;;;;;;;;;5097999;28;20115;-30
2023/08/11 05:13:40;;;;;;;1.92;1.70;;;;;;;;;;5097571;28;20074;-31
2023/08/11 05:16:06;;;;;;;2.42;2.03;;;;;;;;;;5097539;28;20063;-31
2023/08/11 05:18:32;;;;;;;5.07;2.45;;;;;;;;;;5097698;28;20020;-31
2023/08/11 05:20:58;;;;;;;2.83;1.90;;;;;;;;;;5097676;28;20078;-31
2023/08/11 05:23:24;;;;;;;2.35;2.15;;;;;;;;;;5096780;28;20026;-30
2023/08/11 05:25:50;;;;;;;3.15;2.83;;;;;;;;;;5096530;28;20016;-32
2023/08/11 05:28:17;;;;;;;3.38;2.10;;;;;;;;;;5097488;28;20016;-29
2023/08/11 05:30:43;;;;;;;5.15;2.05;;;;;;;;;;5097730;28;20027;-31
2023/08/11 05:33:09;;;;;;;3.50;1.98;;;;;;;;;;5097542;28;20347;-31
2023/08/11 05:35:35;;;;;;;2.45;1.80;;;;;;;;;;5097481;28;20024;-32
2023/08/11 05:38:01;;;;;;;2.65;2.17;;;;;;;;;;5097489;28;20391;-32
2023/08/11 05:40:29;;;;;;;3.00;2.40;;;;;;;;;;5097383;28;20038;-28
2023/08/11 05:42:55;;;;;;;2.55;1.90;;;;;;;;;;5097089;28;20024;-32
2023/08/11 05:45:21;;;;;;;4.88;2.20;;;;;;;;;;5097120;28;20024;-29
2023/08/11 05:47:47;;;;;;;6.20;2.40;;;;;;;;;;5096853;28;20024;-29
2023/08/11 05:50:13;;;;;;;6.07;1.92;;;;;;;;;;5097344;28;20032;-29
2023/08/11 05:52:40;;;;;;;4.57;2.22;;;;;;;;;;5096956;28;20095;-30
2023/08/11 05:55:06;;;;;;;2.75;2.17;;;;;;;;;;5096785;28;20031;-34
2023/08/11 05:57:32;;;;;;;10.07;2.83;;;;;;;;;;5096726;28;20095;-28
2023/08/11 05:59:58;;;;;;;7.93;2.40;;;;;;;;;;5096725;28;20160;-31
2023/08/11 06:02:25;;;;;;;6.55;2.97;;;;;;;;;;5096968;28;20107;-34
2023/08/11 06:04:51;;;;;;;6.03;2.40;;;;;;;;;;5096494;28;20362;-32
2023/08/11 06:07:18;;;;;;;4.90;2.05;;;;;;;;;;5096776;28;20028;-33
2023/08/11 06:09:44;;;;;;;6.82;2.72;;;;;;;;;;5096638;28;20093;-30
2023/08/11 06:12:11;;;;;;;2.67;2.15;;;;;;;;;;5096534;28;20026;-29
2023/08/11 06:14:37;;;;;;;4.63;2.30;;;;;;;;;;5096885;28;20016;-30
2023/08/11 06:17:03;;;;;;;5.57;2.08;;;;;;;;;;5097273;28;20028;-29
2023/08/11 06:19:29;;;;;;;2.28;2.05;;;;;;;;;;5096995;28;20020;-31
2023/08/11 06:21:55;;;;;;;5.95;1.85;;;;;;;;;;5096653;28;20324;-32
2023/08/11 06:24:22;;;;;;;11.88;4.32;;;;;;;;;;5096411;28;20032;-32
2023/08/11 06:26:49;;;;;;;4.68;2.08;;;;;;;;;;5096623;28;20485;-34
2023/08/11 06:29:15;;;;;;;3.65;2.22;;;;;;;;;;5096324;28;20032;-30
2023/08/11 06:31:42;;;;;;;2.80;2.22;;;;;;;;;;5096210;28;20028;-31
2023/08/11 06:34:09;;;;;;;2.35;2.15;;;;;;;;;;5096448;28;20336;-32
2023/08/11 06:36:35;;;;;;;3.10;2.80;;;;;;;;;;5096137;28;20077;-31
2023/08/11 06:39:01;;;;;;;5.38;2.25;;;;;;;;;;5096524;28;20378;-31
2023/08/11 06:41:28;;;;;;;2.15;1.95;;;;;;;;;;5096256;28;20052;-32
2023/08/11 06:43:54;;;;;;;3.45;2.30;;;;;;;;;;5096148;28;20363;-32
2023/08/11 06:46:21;;;;;;;6.95;2.47;;;;;;;;;;5094781;28;20375;-30
2023/08/11 06:48:47;;;;;;;3.08;2.40;;;;;;;;;;5095876;28;20396;-33
2023/08/11 06:51:13;;;;;;;4.88;2.03;;;;;;;;;;5096136;28;20031;-30
2023/08/11 06:53:39;;;;;;;2.58;2.38;;;;;;;;;;5095636;28;20035;-29
2023/08/11 06:56:05;;;;;;;8.05;3.05;;;;;;;;;;5095590;28;20043;-31
2023/08/11 06:58:31;;;;;;;9.27;3.10;;;;;;;;;;5095647;28;20052;-31
2023/08/11 07:00:57;;;;;;;7.03;2.50;;;;;;;;;;5096222;28;20427;-27
2023/08/11 07:03:23;;;;;;;7.63;2.58;;;;;;;;;;5095512;28;20048;-33
2023/08/11 07:05:51;;;;;;;7.40;2.80;;;;;;;;;;5095751;28;20027;-31
2023/08/11 07:08:18;;;;;;;4.38;2.15;;;;;;;;;;5095386;28;20103;-30
2023/08/11 07:10:44;;;;;;;6.35;2.45;;;;;;;;;;5095377;28;20455;-33
2023/08/11 07:13:10;;;;;;;4.75;2.60;;;;;;;;;;5095402;28;20153;-31
2023/08/11 07:15:40;;;;;;;6.20;2.10;;;;;;;;;;5095304;28;20089;-33
2023/08/11 07:18:06;;;;;;;2.50;2.30;;;;;;;;;;5096381;28;20048;-29
2023/08/11 07:20:32;;;;;;;9.38;3.78;;;;;;;;;;5093389;28;20441;-32
2023/08/11 07:22:58;;;;;;;5.95;2.42;;;;;;;;;;5095119;28;20048;-29
2023/08/11 07:25:25;;;;;;;5.50;2.38;;;;;;;;;;5095220;28;20020;-31
2023/08/11 07:27:51;;;;;;;4.38;3.03;;;;;;;;;;5095306;28;20309;-32
2023/08/11 07:30:17;;;;;;;2.40;2.20;;;;;;;;;;5095131;28;20054;-29
2023/08/11 07:32:43;;;;;;;3.45;2.53;;;;;;;;;;5095297;28;20051;-30
2023/08/11 07:35:09;;;;;;;6.20;2.70;;;;;;;;;;5095129;28;20043;-29
2023/08/11 07:37:35;;;;;;;6.60;2.72;;;;;;;;;;5094966;28;20481;-30
2023/08/11 07:40:01;;;;;;;4.30;2.55;;;;;;;;;;5095004;28;20028;-31
2023/08/11 07:42:27;;;;;;;5.10;2.83;;;;;;;;;;5094893;28;20028;-30
2023/08/11 07:44:54;;;;;;;9.27;2.58;;;;;;;;;;5095099;28;20032;-31
2023/08/11 07:47:20;;;;;;;3.00;2.75;;;;;;;;;;5094785;28;20105;-31
2023/08/11 07:49:46;;;;;;;3.25;3.03;;;;;;;;;;5095097;28;20031;-31
2023/08/11 07:52:12;;;;;;;3.35;2.35;;;;;;;;;;5095004;28;20035;-31
2023/08/11 07:54:38;;;;;;;7.32;3.33;;;;;;;;;;5095142;28;20095;-34
2023/08/11 07:57:04;;;;;;;5.32;2.60;;;;;;;;;;5094920;28;20024;-33
2023/08/11 07:59:31;;;;;;;6.28;2.17;;;;;;;;;;5093728;28;20117;-34
2023/08/11 08:01:57;;;;;;;8.68;2.85;;;;;;;;;;5094715;28;20070;-32
2023/08/11 08:04:23;;;;;;;3.63;2.38;;;;;;;;;;5094604;28;20059;-34
2023/08/11 08:06:49;;;;;;;4.45;3.00;;;;;;;;;;5094870;28;20031;-29
2023/08/11 08:09:15;;;;;;;4.47;2.78;;;;;;;;;;5094674;28;20024;-30
2023/08/11 08:11:43;;;;;;;2.70;2.50;;;;;;;;;;5094664;28;20343;-29
2023/08/11 08:14:10;;;;;;;2.50;2.22;;;;;;;;;;5094578;28;20099;-32
2023/08/11 08:16:37;;;;;;;3.83;2.83;;;;;;;;;;5094573;28;20123;-31
2023/08/11 08:19:05;;;;;;;3.10;2.63;;;;;;;;;;5095385;28;20098;-31
2023/08/11 08:21:32;;;;;;;6.18;2.58;;;;;;;;;;5094877;28;20028;-33
2023/08/11 08:23:58;;;;;;;2.50;2.30;;;;;;;;;;5094507;28;20029;-28
2023/08/11 08:26:24;;;;;;;2.50;2.30;;;;;;;;;;5094716;28;20468;-29
2023/08/11 08:28:51;;;;;;;2.72;2.50;;;;;;;;;;5095306;28;20045;-32
2023/08/11 08:31:17;;;;;;;4.15;2.35;;;;;;;;;;5094903;28;20497;-30
2023/08/11 08:33:43;;;;;;;3.72;2.88;;;;;;;;;;5098814;28;20026;-30
2023/08/11 08:36:09;;;;;;;4.82;2.58;;;;;;;;;;5098854;28;20339;-32
2023/08/11 08:38:35;;;;;;;9.63;2.50;;;;;;;;;;5098499;28;20028;-30
2023/08/11 08:41:03;;;;;;;2.58;2.38;;;;;;;;;;5099038;28;20456;-30
2023/08/11 08:43:29;;;;;;;3.90;2.35;;;;;;;;;;5098572;28;20039;-30
2023/08/11 08:45:57;;;;;;;7.10;2.80;;;;;;;;;;5098666;28;20035;-31
2023/08/11 08:48:27;;;;;;;6.50;3.03;;;;;;;;;;5098594;28;20054;-34
2023/08/11 08:50:54;;;;;;;9.48;3.17;;;;;;;;;;5098633;28;20020;-32
2023/08/11 08:53:20;;;;;;;5.70;2.90;;;;;;;;;;5098423;28;20024;-32
2023/08/11 08:55:47;;;;;;;8.50;2.95;;;;;;;;;;5098160;28;20016;-31
2023/08/11 08:58:14;;;;;;;3.88;2.55;;;;;;;;;;5098194;28;20028;-33
2023/08/11 09:00:41;;;;;;;4.72;3.30;;;;;;;;;;5098080;28;20035;-28
2023/08/11 09:03:08;;;;;;;8.25;3.05;;;;;;;;;;5098073;28;20048;-31
2023/08/11 09:05:34;;;;;;;3.30;2.63;;;;;;;;;;5098546;28;20035;-32
2023/08/11 09:08:00;;;;;;;4.97;2.30;;;;;;;;;;5097894;28;20025;-31
2023/08/11 09:10:28;;;;;;;3.45;2.70;;;;;;;;;;5097881;28;20123;-32
2023/08/11 09:12:54;;;;;;;4.18;2.60;;;;;;;;;;5098047;28;20024;-31
2023/08/11 09:15:22;;;;;;;3.03;2.63;;;;;;;;;;5097682;28;20073;-29
2023/08/11 09:17:48;;;;;;;5.47;2.42;;;;;;;;;;5098058;28;20032;-32
2023/08/11 09:20:19;;;;;;;2.80;2.40;;;;;;;;;;5097761;28;20031;-31
2023/08/11 09:22:45;;;;;;;;;;;;;;;;;;5098057;28;20016;-31
2023/08/11 09:25:12;;;;;;;5.13;2.42;;;;;;;;;;5097886;28;19911;-30
2023/08/11 09:27:38;;;;;;;3.25;2.95;;;;;;;;;;5097746;28;20039;-27
2023/08/11 09:30:05;;;;;;;4.50;2.28;;;;;;;;;;5097473;28;20024;-31
2023/08/11 09:32:34;;;;;;;3.75;2.28;;;;;;;;;;5097271;28;20108;-30
2023/08/11 09:35:09;;;;;;;6.20;3.05;;;;;;;;;;5097375;28;20016;-31
2023/08/11 09:37:35;;;;;;;2.72;2.53;;;;;;;;;;5097554;28;20397;-30
2023/08/11 09:40:04;;;;;;;6.32;2.85;;;;;;;;;;5097524;28;20032;-31
2023/08/11 09:42:31;;;;;;;3.17;2.22;;;;;;;;;;5097242;28;20081;-33
2023/08/11 09:44:57;;;;;;;7.80;2.22;;;;;;;;;;5097168;28;20028;-31
2023/08/11 09:47:23;;;;;;;3.20;2.25;;;;;;;;;;5097517;28;20053;-31
2023/08/11 09:49:49;;;;;;;8.55;2.58;;;;;;;;;;5096974;28;20358;-31
2023/08/11 09:52:15;;;;;;;4.95;2.78;;;;;;;;;;5096974;28;20053;-31
2023/08/11 09:54:43;;;;;;;13.48;3.20;;;;;;;;;;5097134;28;20020;-31
2023/08/11 09:57:10;;;;;;;11.07;2.83;;;;;;;;;;5097349;28;20060;-32
2023/08/11 09:59:36;;;;;;;6.10;2.78;;;;;;;;;;5096983;28;20032;-30
2023/08/11 10:02:03;;;;;;;8.27;2.75;;;;;;;;;;5096873;28;20023;-31
2023/08/11 10:04:33;;;;;;;23.05;5.72;;;;;;;;;;5096735;28;20079;-32
2023/08/11 10:07:00;;;;;;;21.98;4.05;;;;;;;;;;5096913;28;20047;-30
2023/08/11 10:09:28;;;;;;;15.30;4.25;;;;;;;;;;5097084;28;20091;-28
2023/08/11 10:11:54;;;;;;;5.72;2.35;;;;;;;;;;5096686;28;20085;-31
2023/08/11 10:14:21;;;;;;;7.45;2.78;;;;;;;;;;5096956;28;20343;-32
2023/08/11 10:16:48;;;;;;;4.15;2.55;;;;;;;;;;5096609;28;20049;-33
2023/08/11 10:19:14;;;;;;;8.40;2.90;;;;;;;;;;5096812;28;20351;-31
2023/08/11 10:21:41;;;;;;;4.68;3.05;;;;;;;;;;5096510;28;20036;-28
2023/08/11 10:24:07;;;;;;;7.40;2.53;;;;;;;;;;5096382;28;20089;-31
2023/08/11 10:26:34;;;;;;;8.85;2.78;;;;;;;;;;5096312;28;20027;-28
2023/08/11 10:29:00;;;;;;;9.23;2.63;;;;;;;;;;5096453;28;20028;-30
2023/08/11 10:31:31;;;;;;;5.15;2.53;;;;;;;;;;5096293;28;20027;-32
2023/08/11 10:33:58;;;;;;;9.10;2.58;;;;;;;;;;5096599;28;20024;-30
2023/08/11 10:36:26;;;;;;;5.85;3.05;;;;;;;;;;5096214;28;20032;-30
2023/08/11 10:38:59;;;;;;;6.07;3.08;;;;;;;;;;5096498;28;20034;-30
2023/08/11 10:41:26;;;;;;;5.90;3.03;;;;;;;;;;5096167;28;20228;-31
2023/08/11 10:43:52;;;;;;;3.55;2.65;;;;;;;;;;5096028;28;20031;-29
2023/08/11 10:46:19;;;;;;;5.72;2.58;;;;;;;;;;5096310;28;20024;-30
2023/08/11 10:48:45;;;;;;;10.52;3.35;;;;;;;;;;5096016;28;20020;-31
2023/08/11 10:51:40;;;;;;;8.30;2.92;;;;;;;;;;5096204;28;20020;-31
2023/08/11 10:54:07;;;;;;;5.75;2.85;;;;;;;;;;5082958;28;20383;-31
2023/08/11 10:56:37;;;;;;;4.60;2.90;;;;;;;;;;5095860;28;20024;-29
2023/08/11 10:59:08;;;;;;;4.78;3.45;;;;;;;;;;5095838;28;20060;-31
2023/08/11 11:01:37;;;;;;;5.53;2.53;;;;;;;;;;5095732;28;20044;-28
2023/08/11 11:04:04;;;;;;;4.15;2.50;;;;;;;;;;5095568;28;20052;-30
2023/08/11 11:06:31;;;;;;;3.17;2.80;;;;;;;;;;5095875;28;20102;-32
2023/08/11 11:08:57;;;;;;;5.05;3.38;;;;;;;;;;5095682;28;20028;-29
2023/08/11 11:11:23;;;;;;;5.63;2.90;;;;;;;;;;5095537;28;20081;-31
2023/08/11 11:13:50;;;;;;;5.07;3.53;;;;;;;;;;5095488;28;20024;-31
2023/08/11 11:16:16;;;;;;;2.53;2.33;;;;;;;;;;5095426;28;20028;-30
2023/08/11 11:18:42;;;;;;;2.92;2.58;;;;;;;;;;5094549;28;20016;-31
2023/08/11 11:21:09;;;;;;;6.45;2.88;;;;;;;;;;5095414;28;20028;-30
2023/08/11 11:23:35;;;;;;;5.00;2.72;;;;;;;;;;5095439;28;20024;-34
2023/08/11 11:26:01;;;;;;;3.97;2.90;;;;;;;;;;5095313;28;20020;-29
2023/08/11 11:28:28;;;;;;;4.10;2.83;;;;;;;;;;5095279;28;20077;-31
2023/08/11 11:30:55;;;;;;;2.83;2.63;;;;;;;;;;5095818;28;20039;-30
2023/08/11 11:33:22;;;;;;;6.88;3.83;;;;;;;;;;5095380;28;20430;-29
2023/08/11 11:35:49;;;;;;;3.88;2.92;;;;;;;;;;5095206;28;20038;-31
2023/08/11 11:38:15;;;;;;;3.35;3.05;;;;;;;;;;5095871;28;20034;-34
2023/08/11 11:40:41;;;;;;;8.20;2.92;;;;;;;;;;5095176;28;20028;-31
2023/08/11 11:43:07;;;;;;;5.13;3.45;;;;;;;;;;5094964;28;20084;-29
2023/08/11 11:45:34;;;;;;;5.30;3.03;;;;;;;;;;5095017;28;20031;-30
2023/08/11 11:48:00;;;;;;;4.97;2.63;;;;;;;;;;5094903;28;20020;-30
2023/08/11 11:50:29;;;;;;;10.43;2.90;;;;;;;;;;5095455;28;20040;-32
2023/08/11 11:52:55;;;;;;;6.78;2.92;;;;;;;;;;5094927;28;20085;-29
2023/08/11 11:55:21;;;;;;;3.22;2.83;;;;;;;;;;5095358;28;20035;-29
2023/08/11 11:57:47;;;;;;;6.38;2.97;;;;;;;;;;5095425;28;20020;-29
2023/08/11 12:00:18;;;;;;;8.32;3.78;;;;;;;;;;5094807;28;20128;-28
2023/08/11 12:02:44;;;;;;;10.55;3.95;;;;;;;;;;5094847;28;20024;-31
2023/08/11 12:05:10;;;;;;;9.48;2.95;;;;;;;;;;5095395;28;20036;-32
2023/08/11 12:07:37;;;;;;;4.55;2.78;;;;;;;;;;5094431;28;20027;-30
2023/08/11 12:10:06;;;;;;;6.00;3.65;;;;;;;;;;5094700;28;20062;-29
2023/08/11 12:12:33;;;;;;;4.20;2.80;;;;;;;;;;5094842;28;20347;-29
2023/08/11 12:15:06;;;;;;;11.30;3.15;;;;;;;;;;5094952;28;20024;-31
2023/08/11 12:17:33;;;;;;;8.88;2.92;;;;;;;;;;5094883;28;20042;-29
2023/08/11 12:20:02;;;;;;;8.18;3.42;;;;;;;;;;5094614;28;20069;-30
2023/08/11 12:22:28;;;;;;;4.53;3.42;;;;;;;;;;5095004;28;20039;-30
2023/08/11 12:24:55;;;;;;;3.75;3.42;;;;;;;;;;5094854;28;20028;-32
2023/08/11 12:27:21;;;;;;;6.07;2.92;;;;;;;;;;5094762;28;20043;-31
2023/08/11 12:29:47;;;;;;;9.93;2.83;;;;;;;;;;5094533;28;20020;-28
2023/08/11 12:32:14;;;;;;;5.05;3.25;;;;;;;;;;5094466;28;20082;-31
2023/08/11 12:34:40;;;;;;;5.93;2.97;;;;;;;;;;5094673;28;20039;-32
2023/08/11 12:37:07;;;;;;;3.10;2.83;;;;;;;;;;5094713;28;20031;-31
2023/08/11 12:39:33;;;;;;;7.70;3.60;;;;;;;;;;5094700;28;20375;-30
2023/08/11 12:41:59;;;;;;;3.50;3.22;;;;;;;;;;5094318;28;20052;-31
2023/08/11 12:44:26;;;;;;;6.88;3.22;;;;;;;;;;5094604;28;20354;-30
2023/08/11 12:46:52;;;;;;;6.95;3.20;;;;;;;;;;5094288;28;20024;-31
2023/08/11 12:49:18;;;;;;;3.03;2.72;;;;;;;;;;5094862;28;20443;-31
2023/08/11 12:51:44;;;;;;;4.35;3.22;;;;;;;;;;5094246;28;20035;-32
2023/08/11 12:54:11;;;;;;;6.43;3.63;;;;;;;;;;5094203;28;20013;-32
2023/08/11 12:56:37;;;;;;;2.72;2.40;;;;;;;;;;5094195;28;20032;-31
2023/08/11 12:59:03;;;;;;;5.45;3.33;;;;;;;;;;5094247;28;20103;-31
2023/08/11 13:01:30;;;;;;;6.90;2.80;;;;;;;;;;5094405;28;20024;-30
2023/08/11 13:03:57;;;;;;;11.85;2.78;;;;;;;;;;5093961;28;20101;-29
2023/08/11 13:06:23;;;;;;;5.70;2.50;;;;;;;;;;5093948;28;20060;-31
2023/08/11 13:08:50;;;;;;;4.07;2.83;;;;;;;;;;5093948;28;20352;-31
2023/08/11 13:11:16;;;;;;;5.75;3.13;;;;;;;;;;5093899;28;20031;-27
2023/08/11 13:13:42;;;;;;;7.00;3.22;;;;;;;;;;5094344;28;20020;-32
2023/08/11 13:16:09;;;;;;;2.67;2.47;;;;;;;;;;5093862;28;20446;-28
2023/08/11 13:18:35;;;;;;;5.43;2.65;;;;;;;;;;5094949;28;20088;-29
2023/08/11 13:21:01;;;;;;;6.32;3.88;;;;;;;;;;5097296;28;20016;-32
2023/08/11 13:23:31;;;;;;;4.03;3.72;;;;;;;;;;5097503;28;20085;-30
2023/08/11 13:25:57;;;;;;;2.83;2.50;;;;;;;;;;5097808;28;20359;-32
2023/08/11 13:28:24;;;;;;;2.90;2.70;;;;;;;;;;5097841;28;20024;-29
2023/08/11 13:30:50;;;;;;;5.20;3.33;;;;;;;;;;5097542;28;20020;-33
2023/08/11 13:33:16;;;;;;;7.28;3.35;;;;;;;;;;5096330;28;20039;-30
2023/08/11 13:35:42;;;;;;;3.70;3.05;;;;;;;;;;5097571;28;20090;-29
2023/08/11 13:38:08;;;;;;;7.93;3.85;;;;;;;;;;5097507;28;20096;-29
2023/08/11 13:40:34;;;;;;;3.47;3.20;;;;;;;;;;5097280;28;20381;-31
2023/08/11 13:43:00;;;;;;;4.88;3.03;;;;;;;;;;5097172;28;20184;-31
2023/08/11 13:45:27;;;;;;;12.35;3.60;;;;;;;;;;5097460;28;20042;-28
2023/08/11 13:47:53;;;;;;;4.32;3.55;;;;;;;;;;5097335;28;20028;-31
2023/08/11 13:50:19;;;;;;;3.35;3.15;;;;;;;;;;5097327;28;20393;-31
2023/08/11 13:52:45;;;;;;;10.57;3.80;;;;;;;;;;5097020;28;20020;-32
2023/08/11 13:55:11;;;;;;;3.97;3.25;;;;;;;;;;5097521;28;20458;-30
2023/08/11 13:57:38;;;;;;;4.35;2.92;;;;;;;;;;5096886;28;20325;-32
2023/08/11 14:00:11;;;;;;;3.97;3.30;;;;;;;;;;5097109;28;20406;-29
2023/08/11 14:02:37;;;;;;;6.05;3.38;;;;;;;;;;5096554;28;20103;-28
2023/08/11 14:05:04;;;;;;;4.97;3.17;;;;;;;;;;5096770;28;20044;-26
2023/08/11 14:07:30;;;;;;;4.50;3.42;;;;;;;;;;5096620;28;20024;-31
2023/08/11 14:09:56;;;;;;;9.18;2.80;;;;;;;;;;5096764;28;20020;-28
2023/08/11 14:12:22;;;;;;;5.63;3.15;;;;;;;;;;5096752;28;20078;-31
2023/08/11 14:14:48;;;;;;;3.88;3.47;;;;;;;;;;5096869;28;20051;-31
2023/08/11 14:17:14;;;;;;;7.95;2.90;;;;;;;;;;5096507;28;20040;-29
2023/08/11 14:19:40;;;;;;;11.65;4.47;;;;;;;;;;5096422;28;20020;-30
2023/08/11 14:22:07;;;;;;;4.95;3.33;;;;;;;;;;5096601;28;20035;-28
2023/08/11 14:24:33;;;;;;;3.92;3.33;;;;;;;;;;5096388;28;20028;-31
2023/08/11 14:26:59;;;;;;;6.57;3.30;;;;;;;;;;5096256;28;20052;-33
2023/08/11 14:29:25;;;;;;;5.47;3.15;;;;;;;;;;5096056;28;20030;-32
2023/08/11 14:31:51;;;;;;;7.53;3.83;;;;;;;;;;5096248;28;20490;-33
2023/08/11 14:34:17;;;;;;;7.05;2.75;;;;;;;;;;5096141;28;20024;-32
2023/08/11 14:36:44;;;;;;;5.68;3.38;;;;;;;;;;5095891;28;20047;-31
2023/08/11 14:39:10;;;;;;;5.78;3.30;;;;;;;;;;5096161;28;20020;-30